createdAt,value
2022-09-25T00:01:13.024Z,45.16
2022-09-25T00:03:43.942Z,45.25
2022-09-25T00:06:18.768Z,44.94
2022-09-25T00:08:50.565Z,45.50
2022-09-25T00:11:27.894Z,44.98
2022-09-25T00:14:00.217Z,44.95
2022-09-25T00:16:33.129Z,44.56
2022-09-25T00:19:22.314Z,44.74
2022-09-25T00:21:54.103Z,44.02
2022-09-25T00:24:24.883Z,44.05
2022-09-25T00:26:55.311Z,43.99
2022-09-25T00:29:28.203Z,43.95
2022-09-25T00:31:58.974Z,43.76
2022-09-25T00:34:29.740Z,43.65
2022-09-25T00:37:00.301Z,44.01
2022-09-25T00:39:31.408Z,43.90
2022-09-25T00:42:02.217Z,43.64
2022-09-25T00:44:59.186Z,43.49
2022-09-25T00:47:49.467Z,43.88
2022-09-25T00:50:33.065Z,43.18
2022-09-25T00:53:16.461Z,43.16
2022-09-25T00:55:48.293Z,43.48
2022-09-25T00:58:24.413Z,43.07
2022-09-25T01:00:55.691Z,43.19
2022-09-25T01:03:27.225Z,43.48
2022-09-25T01:06:01.262Z,43.30
2022-09-25T01:08:34.318Z,43.16
2022-09-25T01:11:04.456Z,43.46
2022-09-25T01:13:35.339Z,42.73
2022-09-25T01:16:18.597Z,42.75
2022-09-25T01:19:17.140Z,42.66
2022-09-25T01:21:51.735Z,42.37
2022-09-25T01:24:43.816Z,42.28
2022-09-25T01:27:30.008Z,42.62
2022-09-25T01:30:08.482Z,42.17
2022-09-25T01:32:52.942Z,41.97
2022-09-25T01:35:45.868Z,42.13
2022-09-25T01:38:39.617Z,41.82
2022-09-25T01:41:24.793Z,42.16
2022-09-25T01:44:13.607Z,42.17
2022-09-25T01:46:52.247Z,41.65
2022-09-25T01:49:36.186Z,42.07
2022-09-25T01:52:21.546Z,41.89
2022-09-25T01:55:02.035Z,41.88
2022-09-25T01:57:41.933Z,41.60
2022-09-25T02:00:16.271Z,41.93
2022-09-25T02:02:56.516Z,41.64
2022-09-25T02:05:37.663Z,41.40
2022-09-25T02:08:17.118Z,41.58
2022-09-25T02:10:58.565Z,41.16
2022-09-25T02:14:03.161Z,41.50
2022-09-25T02:16:48.636Z,41.56
2022-09-25T02:19:38.199Z,41.48
2022-09-25T02:22:37.620Z,41.27
2022-09-25T02:25:22.479Z,41.23
2022-09-25T02:27:52.559Z,40.48
2022-09-25T02:30:22.853Z,40.83
2022-09-25T02:32:53.011Z,40.88
2022-09-25T02:35:23.729Z,40.88
2022-09-25T02:37:57.512Z,40.42
2022-09-25T02:41:06.870Z,40.79
2022-09-25T02:43:53.111Z,40.51
2022-09-25T02:46:45.089Z,40.88
2022-09-25T02:49:52.509Z,40.61
2022-09-25T02:52:52.519Z,40.60
2022-09-25T02:55:55.202Z,40.66
2022-09-25T02:58:45.183Z,40.46
2022-09-25T03:01:18.658Z,40.59
2022-09-25T03:03:52.092Z,40.60
2022-09-25T03:06:24.666Z,40.12
2022-09-25T03:09:00.727Z,39.88
2022-09-25T03:11:31.143Z,39.71
2022-09-25T03:14:04.048Z,39.89
2022-09-25T03:16:44.981Z,40.38
2022-09-25T03:19:20.913Z,39.41
2022-09-25T03:21:52.431Z,39.88
2022-09-25T03:24:23.465Z,39.89
2022-09-25T03:26:55.284Z,39.31
2022-09-25T03:29:26.553Z,39.76
2022-09-25T03:31:56.797Z,38.86
2022-09-25T03:34:27.157Z,39.48
2022-09-25T03:36:57.362Z,39.06
2022-09-25T03:39:26.923Z,39.99
2022-09-25T03:41:57.237Z,39.12
2022-09-25T03:44:31.223Z,39.06
2022-09-25T03:47:02.050Z,39.06
2022-09-25T03:49:32.332Z,39.65
2022-09-25T03:52:02.889Z,39.34
2022-09-25T03:54:34.075Z,38.98
2022-09-25T03:57:04.681Z,39.59
2022-09-25T03:59:35.353Z,38.80
2022-09-25T04:02:06.020Z,38.40
2022-09-25T04:04:36.442Z,39.22
2022-09-25T04:07:09.791Z,38.46
2022-09-25T04:09:41.175Z,38.86
2022-09-25T04:12:12.693Z,38.70
2022-09-25T04:14:43.577Z,38.94
2022-09-25T04:17:14.232Z,39.39
2022-09-25T04:19:45.060Z,38.62
2022-09-25T04:22:15.817Z,38.66
2022-09-25T04:24:52.061Z,38.92
2022-09-25T04:27:24.341Z,38.08
2022-09-25T04:29:55.308Z,37.85
2022-09-25T04:32:43.712Z,38.29
2022-09-25T04:35:14.593Z,37.79
2022-09-25T04:37:44.628Z,38.54
2022-09-25T04:40:14.863Z,38.08
2022-09-25T04:42:46.068Z,38.13
2022-09-25T04:45:17.424Z,38.03
2022-09-25T04:47:47.593Z,37.10
2022-09-25T04:50:17.786Z,38.13
2022-09-25T04:52:47.976Z,37.75
2022-09-25T04:55:25.678Z,37.64
2022-09-25T04:57:59.091Z,36.37
2022-09-25T05:00:32.899Z,37.56
2022-09-25T05:03:05.970Z,36.45
2022-09-25T05:05:37.317Z,35.98
2022-09-25T05:08:08.091Z,35.21
2022-09-25T05:10:41.063Z,34.83
2022-09-25T05:13:13.368Z,35.83
2022-09-25T05:15:46.388Z,32.83
2022-09-25T05:18:23.512Z,35.53
2022-09-25T05:20:55.670Z,35.72
2022-09-25T05:23:26.454Z,36.43
2022-09-25T05:25:59.366Z,36.73
2022-09-25T05:28:30.465Z,36.62
2022-09-25T05:31:07.927Z,37.36
2022-09-25T05:33:38.742Z,37.31
2022-09-25T05:36:09.985Z,36.91
2022-09-25T05:38:42.378Z,37.38
2022-09-25T05:41:13.820Z,37.07
2022-09-25T05:43:48.953Z,36.81
2022-09-25T05:46:19.843Z,37.08
2022-09-25T05:48:49.906Z,36.37
2022-09-25T05:51:19.950Z,35.26
2022-09-25T05:53:52.527Z,35.96
2022-09-25T05:56:25.657Z,36.27
2022-09-25T05:59:00.005Z,36.67
2022-09-25T06:01:30.549Z,35.97
2022-09-25T06:04:00.726Z,36.42
2022-09-25T06:06:33.305Z,36.72
2022-09-25T06:09:03.208Z,37.44
2022-09-25T06:11:33.574Z,36.71
2022-09-25T06:14:05.183Z,36.40
2022-09-25T06:16:36.751Z,35.19
2022-09-25T06:19:07.350Z,36.12
2022-09-25T06:21:40.983Z,36.80
2022-09-25T06:24:15.026Z,35.70
2022-09-25T06:26:46.085Z,36.17
2022-09-25T06:29:16.648Z,36.57
2022-09-25T06:31:47.702Z,36.43
2022-09-25T06:34:18.502Z,35.68
2022-09-25T06:36:49.590Z,35.55
2022-09-25T06:39:19.970Z,35.44
2022-09-25T06:41:51.149Z,34.62
2022-09-25T06:44:24.443Z,35.62
2022-09-25T06:46:55.946Z,35.29
2022-09-25T06:49:27.210Z,35.41
2022-09-25T06:51:58.252Z,35.59
2022-09-25T06:54:33.347Z,36.01
2022-09-25T06:57:04.294Z,35.83
2022-09-25T06:59:34.997Z,36.32
2022-09-25T07:02:23.354Z,35.63
2022-09-25T07:04:54.303Z,35.74
2022-09-25T07:07:25.736Z,35.72
2022-09-25T07:09:56.582Z,35.92
2022-09-25T07:12:26.964Z,35.94
2022-09-25T07:14:57.988Z,35.69
2022-09-25T07:17:28.461Z,35.62
2022-09-25T07:19:59.363Z,35.36
2022-09-25T07:22:30.941Z,35.66
2022-09-25T07:25:01.714Z,35.71
2022-09-25T07:27:32.754Z,35.32
2022-09-25T07:30:06.253Z,35.52
2022-09-25T07:32:37.157Z,36.11
2022-09-25T07:35:07.738Z,35.65
2022-09-25T07:37:37.941Z,35.54
2022-09-25T07:40:08.852Z,35.65
2022-09-25T07:42:39.601Z,35.34
2022-09-25T07:45:11.000Z,35.69
2022-09-25T07:47:41.198Z,34.81
2022-09-25T07:50:15.366Z,35.62
2022-09-25T07:52:46.047Z,34.85
2022-09-25T07:55:16.351Z,34.89
2022-09-25T07:57:46.729Z,34.89
2022-09-25T08:00:17.133Z,35.05
2022-09-25T08:02:47.209Z,35.13
2022-09-25T08:05:17.446Z,34.86
2022-09-25T08:07:47.631Z,34.38
2022-09-25T08:10:20.432Z,35.41
2022-09-25T08:12:51.264Z,35.10
2022-09-25T08:15:22.155Z,34.57
2022-09-25T08:17:53.122Z,35.28
2022-09-25T08:20:23.444Z,34.92
2022-09-25T08:22:56.664Z,35.64
2022-09-25T08:25:26.718Z,35.27
2022-09-25T08:27:56.875Z,35.26
2022-09-25T08:30:27.123Z,35.12
2022-09-25T08:32:57.493Z,35.04
2022-09-25T08:35:29.275Z,35.13
2022-09-25T08:38:00.415Z,35.40
2022-09-25T08:40:33.844Z,35.62
2022-09-25T08:43:05.014Z,35.88
2022-09-25T08:46:11.061Z,36.21
2022-09-25T08:49:08.503Z,36.32
2022-09-25T08:51:51.935Z,36.64
2022-09-25T08:54:30.868Z,36.37
2022-09-25T08:57:21.122Z,36.94
2022-09-25T09:00:01.466Z,36.54
2022-09-25T09:02:39.845Z,36.63
2022-09-25T09:05:25.674Z,36.89
2022-09-25T09:08:21.296Z,36.76
2022-09-25T09:10:57.735Z,37.01
2022-09-25T09:13:39.765Z,36.64
2022-09-25T09:16:17.199Z,37.46
2022-09-25T09:18:47.365Z,37.69
2022-09-25T09:21:28.938Z,37.54
2022-09-25T09:24:22.647Z,37.46
2022-09-25T09:27:29.506Z,37.26
2022-09-25T09:30:06.255Z,37.79
2022-09-25T09:32:48.862Z,37.88
2022-09-25T09:35:45.533Z,37.80
2022-09-25T09:38:49.272Z,37.99
2022-09-25T09:41:43.793Z,38.15
2022-09-25T09:44:35.008Z,38.12
2022-09-25T09:47:14.246Z,38.55
2022-09-25T09:50:03.486Z,38.74
2022-09-25T09:52:43.185Z,39.07
2022-09-25T09:55:15.525Z,40.32
2022-09-25T09:58:10.096Z,39.71
2022-09-25T10:00:41.988Z,40.42
2022-09-25T10:03:19.229Z,39.88
2022-09-25T10:05:57.122Z,39.77
2022-09-25T10:08:27.858Z,40.56
2022-09-25T10:11:00.619Z,40.15
2022-09-25T10:13:40.242Z,39.11
2022-09-25T10:16:14.431Z,39.33
2022-09-25T10:19:25.454Z,39.01
2022-09-25T10:22:09.038Z,39.39
2022-09-25T10:25:06.746Z,39.26
2022-09-25T10:27:47.628Z,40.60
2022-09-25T10:30:23.653Z,40.12
2022-09-25T10:33:14.631Z,39.84
2022-09-25T10:35:47.568Z,40.61
2022-09-25T10:38:27.099Z,40.06
2022-09-25T10:41:09.980Z,40.34
2022-09-25T10:44:04.824Z,39.84
2022-09-25T10:46:56.649Z,39.88
2022-09-25T10:49:47.309Z,40.85
2022-09-25T10:52:20.747Z,41.08
2022-09-25T10:54:53.837Z,41.59
2022-09-25T10:57:39.559Z,40.45
2022-09-25T11:00:25.238Z,40.53
2022-09-25T11:03:00.999Z,41.05
2022-09-25T11:05:39.626Z,40.80
2022-09-25T11:08:10.666Z,41.57
2022-09-25T11:11:00.444Z,40.31
2022-09-25T11:13:47.877Z,40.58
2022-09-25T11:16:18.755Z,41.98
2022-09-25T11:18:52.591Z,41.21
2022-09-25T11:21:31.918Z,41.47
2022-09-25T11:24:22.974Z,40.88
2022-09-25T11:26:57.112Z,42.08
2022-09-25T11:29:40.903Z,41.12
2022-09-25T11:32:47.703Z,40.68
2022-09-25T11:35:21.218Z,42.79
2022-09-25T11:38:11.620Z,42.74
2022-09-25T11:41:17.806Z,40.86
2022-09-25T11:44:12.484Z,41.43
2022-09-25T11:47:03.186Z,42.43
2022-09-25T11:49:39.541Z,42.03
2022-09-25T11:52:39.187Z,41.45
2022-09-25T11:55:35.980Z,42.02
2022-09-25T11:58:24.236Z,41.68
2022-09-25T12:01:27.565Z,42.02
2022-09-25T12:04:09.889Z,42.70
2022-09-25T12:07:13.370Z,42.02
2022-09-25T12:09:55.764Z,42.06
2022-09-25T12:12:46.570Z,42.30
2022-09-25T12:15:34.681Z,44.23
2022-09-25T12:18:39.346Z,41.97
2022-09-25T12:21:13.036Z,44.48
2022-09-25T12:23:49.791Z,43.18
2022-09-25T12:26:28.059Z,44.06
2022-09-25T12:29:30.495Z,42.45
2022-09-25T12:32:17.932Z,42.78
2022-09-25T12:35:16.370Z,42.47
2022-09-25T12:38:04.985Z,43.20
2022-09-25T12:41:13.641Z,41.93
2022-09-25T12:43:49.767Z,43.44
2022-09-25T12:46:47.343Z,42.62
2022-09-25T12:49:35.332Z,43.22
2022-09-25T12:52:30.479Z,42.76
2022-09-25T12:55:06.528Z,45.05
2022-09-25T12:57:47.244Z,44.58
2022-09-25T13:00:27.158Z,43.19
2022-09-25T13:03:03.165Z,44.30
2022-09-25T13:05:39.167Z,43.28
2022-09-25T13:08:22.022Z,43.57
2022-09-25T13:10:59.365Z,44.21
2022-09-25T13:13:38.505Z,44.71
2022-09-25T13:16:09.335Z,45.21
2022-09-25T13:18:40.823Z,45.21
2022-09-25T13:21:38.256Z,43.40
2022-09-25T13:24:15.123Z,44.28
2022-09-25T13:26:57.969Z,43.40
2022-09-25T13:29:33.080Z,44.44
2022-09-25T13:32:26.747Z,43.26
2022-09-25T13:35:04.223Z,43.90
2022-09-25T13:37:40.912Z,44.79
2022-09-25T13:40:39.159Z,43.92
2022-09-25T13:43:27.096Z,44.94
2022-09-25T13:46:30.563Z,43.68
2022-09-25T13:49:36.723Z,43.21
2022-09-25T13:52:38.837Z,43.28
2022-09-25T13:55:20.934Z,44.67
2022-09-25T13:58:01.393Z,44.53
2022-09-25T14:01:00.459Z,44.31
2022-09-25T14:03:41.154Z,44.61
2022-09-25T14:06:24.410Z,43.81
2022-09-25T14:09:00.364Z,44.35
2022-09-25T14:11:35.830Z,44.24
2022-09-25T14:14:39.881Z,44.04
2022-09-25T14:17:18.201Z,44.09
2022-09-25T14:19:53.739Z,44.39
2022-09-25T14:22:41.938Z,43.64
2022-09-25T14:25:34.342Z,43.63
2022-09-25T14:28:18.197Z,45.27
2022-09-25T14:31:16.218Z,44.43
2022-09-25T14:34:11.144Z,45.35
2022-09-25T14:37:02.095Z,43.94
2022-09-25T14:39:57.630Z,43.81
2022-09-25T14:42:30.666Z,44.86
2022-09-25T14:45:10.230Z,46.11
2022-09-25T14:47:48.938Z,45.02
2022-09-25T14:50:29.678Z,44.42
2022-09-25T14:53:06.322Z,45.01
2022-09-25T14:55:41.681Z,45.03
2022-09-25T14:58:18.450Z,45.04
2022-09-25T15:00:52.936Z,44.63
2022-09-25T15:03:33.017Z,45.26
2022-09-25T15:06:04.074Z,45.51
2022-09-25T15:08:34.798Z,44.49
2022-09-25T15:11:14.507Z,45.27
2022-09-25T15:13:47.470Z,47.55
2022-09-25T15:16:43.114Z,45.61
2022-09-25T15:19:24.352Z,45.57
2022-09-25T15:21:56.205Z,46.45
2022-09-25T15:24:33.680Z,45.53
2022-09-25T15:27:08.158Z,45.63
2022-09-25T15:29:43.795Z,45.42
2022-09-25T15:32:31.447Z,45.42
2022-09-25T15:35:16.485Z,44.75
2022-09-25T15:37:48.590Z,45.78
2022-09-25T15:40:32.161Z,45.25
2022-09-25T15:43:04.387Z,46.58
2022-09-25T15:46:12.563Z,45.24
2022-09-25T15:48:55.551Z,46.83
2022-09-25T15:51:34.914Z,45.09
2022-09-25T15:54:33.809Z,44.75
2022-09-25T15:57:08.494Z,46.09
2022-09-25T16:00:03.025Z,45.93
2022-09-25T16:02:56.175Z,45.35
2022-09-25T16:05:38.038Z,45.53
2022-09-25T16:08:17.702Z,45.36
2022-09-25T16:10:50.300Z,46.49
2022-09-25T16:13:27.329Z,45.79
2022-09-25T16:15:58.185Z,44.89
2022-09-25T16:18:41.232Z,45.36
2022-09-25T16:21:16.772Z,46.05
2022-09-25T16:23:57.512Z,45.72
2022-09-25T16:26:29.080Z,46.31
2022-09-25T16:29:09.886Z,45.54
2022-09-25T16:31:45.318Z,45.89
2022-09-25T16:34:39.873Z,45.08
2022-09-25T16:37:22.993Z,46.69
2022-09-25T16:40:20.513Z,45.96
2022-09-25T16:42:52.262Z,46.65
2022-09-25T16:45:26.488Z,47.88
2022-09-25T16:47:59.870Z,47.69
2022-09-25T16:50:35.282Z,49.70
2022-09-25T16:53:07.750Z,48.02
2022-09-25T16:55:54.761Z,47.61
2022-09-25T16:58:24.951Z,48.90
2022-09-25T17:00:55.067Z,49.56
2022-09-25T17:03:24.722Z,47.08
2022-09-25T17:05:54.766Z,48.88
2022-09-25T17:08:26.398Z,48.90
2022-09-25T17:10:57.714Z,50.08
2022-09-25T17:13:34.657Z,49.10
2022-09-25T17:16:05.057Z,48.42
2022-09-25T17:18:36.690Z,50.05
2022-09-25T17:21:14.120Z,49.56
2022-09-25T17:23:45.958Z,49.79
2022-09-25T17:26:24.556Z,48.74
2022-09-25T17:28:54.773Z,50.83
2022-09-25T17:31:25.093Z,51.90
2022-09-25T17:33:54.716Z,50.14
2022-09-25T17:36:25.225Z,50.46
2022-09-25T17:38:55.347Z,49.39
2022-09-25T17:41:38.107Z,47.90
2022-09-25T17:44:12.149Z,49.57
2022-09-25T17:46:42.699Z,48.72
2022-09-25T17:49:12.883Z,48.51
2022-09-25T17:51:43.755Z,48.15
2022-09-25T17:54:14.734Z,47.67
2022-09-25T17:56:46.608Z,49.12
2022-09-25T17:59:17.172Z,49.66
2022-09-25T18:01:47.055Z,49.05
2022-09-25T18:04:27.902Z,49.75
2022-09-25T18:06:58.188Z,50.09
2022-09-25T18:09:28.378Z,50.71
2022-09-25T18:11:58.855Z,50.68
2022-09-25T18:14:29.061Z,49.51
2022-09-25T18:16:59.507Z,50.82
2022-09-25T18:19:47.448Z,50.64
2022-09-25T18:22:22.811Z,51.17
2022-09-25T18:24:57.731Z,51.38
2022-09-25T18:27:32.424Z,50.68
2022-09-25T18:30:03.098Z,51.68
2022-09-25T18:32:34.271Z,50.69
2022-09-25T18:35:04.733Z,50.70
2022-09-25T18:37:35.146Z,51.81
2022-09-25T18:40:06.351Z,51.00
2022-09-25T18:42:36.791Z,51.37
2022-09-25T18:45:08.752Z,51.76
2022-09-25T18:47:39.301Z,52.05
2022-09-25T18:50:12.881Z,51.79
2022-09-25T18:52:47.631Z,52.56
2022-09-25T18:55:18.855Z,51.42
2022-09-25T18:57:49.326Z,51.30
2022-09-25T19:00:20.117Z,51.64
2022-09-25T19:02:50.520Z,51.27
2022-09-25T19:05:21.493Z,52.10
2022-09-25T19:07:53.175Z,51.37
2022-09-25T19:10:25.501Z,52.00
2022-09-25T19:12:55.959Z,51.42
2022-09-25T19:15:26.510Z,51.36
2022-09-25T19:18:00.017Z,51.25
2022-09-25T19:20:30.712Z,52.28
2022-09-25T19:23:02.342Z,52.30
2022-09-25T19:25:32.768Z,51.56
2022-09-25T19:28:03.245Z,51.09
2022-09-25T19:30:33.809Z,51.95
2022-09-25T19:33:06.167Z,51.83
2022-09-25T19:35:36.860Z,52.42
2022-09-25T19:38:11.817Z,51.58
2022-09-25T19:40:43.612Z,52.14
2022-09-25T19:43:14.115Z,51.80
2022-09-25T19:45:52.213Z,50.69
2022-09-25T19:48:26.356Z,50.97
2022-09-25T19:50:56.864Z,51.13
2022-09-25T19:53:26.960Z,51.24
2022-09-25T19:55:59.541Z,50.48
2022-09-25T19:58:31.160Z,52.63
2022-09-25T20:01:02.103Z,50.57
2022-09-25T20:03:33.010Z,53.24
2022-09-25T20:06:04.822Z,50.80
2022-09-25T20:08:36.024Z,52.18
2022-09-25T20:11:19.814Z,50.55
2022-09-25T20:13:53.049Z,51.08
2022-09-25T20:16:26.620Z,52.06
2022-09-25T20:19:06.890Z,51.09
2022-09-25T20:21:43.198Z,52.29
2022-09-25T20:24:14.271Z,52.19
2022-09-25T20:26:44.128Z,52.68
2022-09-25T20:29:16.625Z,52.14
2022-09-25T20:31:47.964Z,52.66
2022-09-25T20:34:21.322Z,52.04
2022-09-25T20:36:52.134Z,52.73
2022-09-25T20:39:24.362Z,53.09
2022-09-25T20:41:54.449Z,52.87
2022-09-25T20:44:24.857Z,52.89
2022-09-25T20:46:54.925Z,54.54
2022-09-25T20:49:25.130Z,53.07
2022-09-25T20:51:55.401Z,53.29
2022-09-25T20:54:30.725Z,52.69
2022-09-25T20:57:00.840Z,52.40
2022-09-25T20:59:30.271Z,53.55
2022-09-25T21:02:00.348Z,53.67
2022-09-25T21:04:31.169Z,55.00
2022-09-25T21:07:01.403Z,53.25
2022-09-25T21:09:32.464Z,52.91
2022-09-25T21:12:06.820Z,54.15
2022-09-25T21:14:37.146Z,54.00
2022-09-25T21:17:07.514Z,53.14
2022-09-25T21:19:37.958Z,53.08
2022-09-25T21:22:08.766Z,54.02
2022-09-25T21:24:39.091Z,53.31
2022-09-25T21:27:09.730Z,53.21
2022-09-25T21:29:39.958Z,52.70
2022-09-25T21:32:10.675Z,52.07
2022-09-25T21:34:40.737Z,53.21
2022-09-25T21:37:10.787Z,53.57
2022-09-25T21:39:41.102Z,53.19
2022-09-25T21:42:11.420Z,53.17
2022-09-25T21:44:41.385Z,53.83
2022-09-25T21:47:11.549Z,53.42
2022-09-25T21:49:41.690Z,53.01
2022-09-25T21:52:12.065Z,52.68
2022-09-25T21:54:44.260Z,52.51
2022-09-25T21:57:14.542Z,53.67
2022-09-25T21:59:44.610Z,53.25
2022-09-25T22:02:14.706Z,51.94
2022-09-25T22:04:45.550Z,52.01
2022-09-25T22:07:15.918Z,52.51
2022-09-25T22:09:46.639Z,52.06
2022-09-25T22:12:16.834Z,52.02
2022-09-25T22:14:46.839Z,52.77
2022-09-25T22:17:17.075Z,52.04
2022-09-25T22:19:47.567Z,52.10
2022-09-25T22:22:17.528Z,53.08
2022-09-25T22:24:47.463Z,53.18
2022-09-25T22:27:17.701Z,53.18
2022-09-25T22:29:47.785Z,54.03
2022-09-25T22:32:17.882Z,53.29
2022-09-25T22:34:48.126Z,53.86
2022-09-25T22:37:19.688Z,52.44
2022-09-25T22:39:49.701Z,52.66
2022-09-25T22:42:19.774Z,53.97
2022-09-25T22:44:49.850Z,53.61
2022-09-25T22:47:19.890Z,53.29
2022-09-25T22:49:50.104Z,52.77
2022-09-25T22:52:20.772Z,53.50
2022-09-25T22:54:50.981Z,52.57
2022-09-25T22:57:21.602Z,53.20
2022-09-25T22:59:51.879Z,52.96
2022-09-25T23:02:22.333Z,52.70
2022-09-25T23:04:55.184Z,52.02
2022-09-25T23:07:25.644Z,52.34
2022-09-25T23:09:55.864Z,52.23
2022-09-25T23:12:30.411Z,52.06
2022-09-25T23:15:01.313Z,52.09
2022-09-25T23:17:31.733Z,51.76
2022-09-25T23:20:02.027Z,51.87
2022-09-25T23:22:33.094Z,52.22
2022-09-25T23:25:03.379Z,51.70
2022-09-25T23:27:35.252Z,51.94
2022-09-25T23:30:06.145Z,52.09
2022-09-25T23:32:37.902Z,51.66
2022-09-25T23:35:09.010Z,51.36
2022-09-25T23:37:42.715Z,51.22
2022-09-25T23:40:15.736Z,52.51
2022-09-25T23:42:46.468Z,51.78
2022-09-25T23:45:17.031Z,51.96
2022-09-25T23:47:47.552Z,52.13
2022-09-25T23:50:17.064Z,50.40
2022-09-25T23:52:47.326Z,52.05
2022-09-25T23:55:17.711Z,51.46
2022-09-25T23:57:47.868Z,51.37
